createdAt,value
2019-05-06T00:00:55.352Z,101187.02
2019-05-06T00:04:05.004Z,101182.68
2019-05-06T00:07:13.803Z,101187.45
2019-05-06T00:10:26.552Z,101182.80
2019-05-06T00:13:34.428Z,101187.36
2019-05-06T00:16:43.861Z,101188.61
2019-05-06T00:19:50.924Z,101183.52
2019-05-06T00:23:04.297Z,101177.62
2019-05-06T00:26:25.381Z,101171.66
2019-05-06T00:29:49.899Z,101176.75
2019-05-06T00:33:06.504Z,101177.19
2019-05-06T00:36:14.218Z,101175.19
2019-05-06T00:39:44.554Z,101171.38
2019-05-06T00:43:09.827Z,101169.29
2019-05-06T00:46:26.871Z,101165.05
2019-05-06T00:49:34.604Z,101160.36
2019-05-06T00:52:42.091Z,101161.77
2019-05-06T00:55:49.488Z,101161.40
2019-05-06T00:58:55.703Z,101157.98
2019-05-06T01:02:14.054Z,101160.13
2019-05-06T01:05:21.645Z,101155.98
2019-05-06T01:08:29.030Z,101155.18
2019-05-06T01:11:36.342Z,101150.55
2019-05-06T01:14:47.540Z,101155.31
2019-05-06T01:18:04.328Z,101156.59
2019-05-06T01:21:21.033Z,101147.31
2019-05-06T01:24:37.659Z,101143.88
2019-05-06T01:28:00.561Z,101140.20
2019-05-06T01:31:17.158Z,101153.29
2019-05-06T01:34:34.275Z,101166.45
2019-05-06T01:37:44.148Z,101165.64
2019-05-06T01:41:04.112Z,101157.96
2019-05-06T01:44:13.611Z,101150.36
2019-05-06T01:47:30.092Z,101151.87
2019-05-06T01:50:54.013Z,101148.41
2019-05-06T01:54:10.933Z,101147.09
2019-05-06T01:57:27.662Z,101142.81
2019-05-06T02:00:44.234Z,101135.61
2019-05-06T02:03:53.677Z,101142.41
2019-05-06T02:07:09.932Z,101137.67
2019-05-06T02:10:34.943Z,101141.48
2019-05-06T02:13:44.188Z,101136.59
2019-05-06T02:16:51.421Z,101136.16
2019-05-06T02:19:59.061Z,101140.89
2019-05-06T02:23:18.960Z,101126.08
2019-05-06T02:26:24.682Z,101132.48
2019-05-06T02:29:50.193Z,101123.59
2019-05-06T02:33:15.542Z,101126.16
2019-05-06T02:36:34.312Z,101132.63
2019-05-06T02:39:43.711Z,101121.26
2019-05-06T02:42:50.208Z,101129.78
2019-05-06T02:46:06.791Z,101117.91
2019-05-06T02:49:40.143Z,101118.34
2019-05-06T02:52:47.521Z,101111.17
2019-05-06T02:55:55.031Z,101109.12
2019-05-06T02:59:03.957Z,101113.52
2019-05-06T03:02:14.082Z,101116.05
2019-05-06T03:05:23.499Z,101105.52
2019-05-06T03:08:38.726Z,101105.03
2019-05-06T03:11:45.035Z,101107.19
2019-05-06T03:14:53.202Z,101103.84
2019-05-06T03:18:03.162Z,101104.70
2019-05-06T03:21:26.528Z,101100.48
2019-05-06T03:24:59.223Z,101100.00
2019-05-06T03:28:23.786Z,101107.75
2019-05-06T03:31:45.772Z,101105.59
2019-05-06T03:35:19.569Z,101100.12
2019-05-06T03:38:16.905Z,101101.83
2019-05-06T03:41:33.938Z,101103.86
2019-05-06T03:44:43.693Z,101095.41
2019-05-06T03:47:55.712Z,101090.87
2019-05-06T03:51:04.193Z,101090.87
2019-05-06T03:54:12.775Z,101093.02
2019-05-06T03:57:23.127Z,101092.58
2019-05-06T04:00:33.363Z,101088.36
2019-05-06T04:03:47.161Z,101090.95
2019-05-06T04:06:58.826Z,101090.04
2019-05-06T04:10:15.430Z,101085.77
2019-05-06T04:13:33.304Z,101085.34
2019-05-06T04:16:49.533Z,101087.14
2019-05-06T04:20:04.033Z,101086.69
2019-05-06T04:23:36.303Z,101088.28
2019-05-06T04:26:54.772Z,101098.02
2019-05-06T04:30:04.666Z,101087.47
2019-05-06T04:33:16.545Z,101084.45
2019-05-06T04:36:33.462Z,101077.97
2019-05-06T04:39:39.918Z,101088.56
2019-05-06T04:42:46.680Z,101095.32
2019-05-06T04:45:54.387Z,101092.36
2019-05-06T04:49:03.936Z,101092.30
2019-05-06T04:52:13.874Z,101088.46
2019-05-06T04:55:22.627Z,101089.67
2019-05-06T04:58:29.634Z,101087.19
2019-05-06T05:01:46.510Z,101081.48
2019-05-06T05:04:53.004Z,101080.13
2019-05-06T05:08:02.495Z,101077.03
2019-05-06T05:11:27.296Z,101076.28
2019-05-06T05:14:52.148Z,101080.56
2019-05-06T05:18:24.782Z,101073.55
2019-05-06T05:21:48.406Z,101069.89
2019-05-06T05:24:55.811Z,101072.41
2019-05-06T05:28:03.527Z,101077.73
2019-05-06T05:31:12.253Z,101081.34
2019-05-06T05:34:19.916Z,101083.71
2019-05-06T05:37:41.964Z,101076.21
2019-05-06T05:40:58.859Z,101078.10
2019-05-06T05:44:22.766Z,101080.83
2019-05-06T05:47:30.298Z,101085.44
2019-05-06T05:50:42.044Z,101087.00
2019-05-06T05:53:49.185Z,101091.06
2019-05-06T05:56:56.008Z,101089.58
2019-05-06T06:00:04.162Z,101097.50
2019-05-06T06:03:22.042Z,101107.30
2019-05-06T06:06:29.539Z,101111.03
2019-05-06T06:09:44.972Z,101105.33
2019-05-06T06:12:52.962Z,101108.15
2019-05-06T06:16:19.426Z,101104.99
2019-05-06T06:19:48.986Z,101100.23
2019-05-06T06:22:59.417Z,101100.50
2019-05-06T06:26:06.977Z,101096.09
2019-05-06T06:29:12.866Z,101092.14
2019-05-06T06:32:25.364Z,101092.39
2019-05-06T06:35:51.519Z,101092.47
2019-05-06T06:39:19.337Z,101090.56
2019-05-06T06:42:26.856Z,101082.86
2019-05-06T06:45:45.513Z,101081.59
2019-05-06T06:49:03.227Z,101091.91
2019-05-06T06:52:14.206Z,101081.58
2019-05-06T06:55:38.448Z,101076.81
2019-05-06T06:59:05.409Z,101085.64
2019-05-06T07:02:39.770Z,101080.22
2019-05-06T07:05:52.914Z,101073.83
2019-05-06T07:09:00.207Z,101074.12
2019-05-06T07:12:16.962Z,101078.96
2019-05-06T07:15:40.024Z,101091.64
2019-05-06T07:18:56.689Z,101084.20
2019-05-06T07:22:06.522Z,101087.59
2019-05-06T07:30:05.999Z,101087.60
2019-05-06T07:33:13.441Z,101083.42
2019-05-06T07:36:32.348Z,101093.61
2019-05-06T07:39:39.706Z,101089.70
2019-05-06T07:42:49.173Z,101084.66
2019-05-06T07:45:58.095Z,101093.82
2019-05-06T07:49:05.493Z,101090.83
2019-05-06T07:52:12.350Z,101089.18
2019-05-06T07:55:19.831Z,101084.30
2019-05-06T07:58:27.110Z,101084.36
2019-05-06T08:01:44.374Z,101073.34
2019-05-06T08:04:53.208Z,101081.15
2019-05-06T08:08:03.300Z,101078.59
2019-05-06T08:11:12.214Z,101081.09
2019-05-06T08:14:19.019Z,101086.72
2019-05-06T08:17:33.099Z,101087.16
2019-05-06T08:20:49.482Z,101085.44
2019-05-06T08:23:56.313Z,101082.25
2019-05-06T08:27:03.739Z,101097.17
2019-05-06T08:30:22.907Z,101087.23
2019-05-06T08:33:38.794Z,101099.03
2019-05-06T08:37:07.128Z,101098.97
2019-05-06T08:40:14.579Z,101104.47
2019-05-06T08:43:22.087Z,101105.11
2019-05-06T08:46:29.355Z,101099.91
2019-05-06T08:49:53.212Z,101103.88
2019-05-06T08:53:23.976Z,101098.19
2019-05-06T08:56:29.220Z,101097.35
2019-05-06T08:59:36.776Z,101099.86
2019-05-06T09:02:53.519Z,101090.05
2019-05-06T09:06:24.473Z,101082.09
2019-05-06T09:09:28.571Z,101085.81
2019-05-06T09:12:45.190Z,101078.55
2019-05-06T09:16:02.594Z,101078.66
2019-05-06T09:19:09.974Z,101078.09
2019-05-06T09:22:17.223Z,101071.09
2019-05-06T09:25:24.622Z,101065.75
2019-05-06T09:28:43.397Z,101070.23
2019-05-06T09:31:52.959Z,101067.34
2019-05-06T09:35:02.949Z,101065.33
2019-05-06T09:38:12.626Z,101060.13
2019-05-06T09:41:19.647Z,101055.70
2019-05-06T09:44:27.258Z,101059.32
2019-05-06T09:47:53.123Z,101067.72
2019-05-06T09:51:02.896Z,101087.48
2019-05-06T09:54:24.712Z,101104.50
2019-05-06T09:57:34.146Z,101096.34
2019-05-06T10:00:44.631Z,101095.52
2019-05-06T10:03:53.054Z,101093.72
2019-05-06T10:07:02.551Z,101107.73
2019-05-06T10:10:09.631Z,101095.57
2019-05-06T10:13:16.921Z,101099.73
2019-05-06T10:16:24.413Z,101110.22
2019-05-06T10:19:32.099Z,101112.41
2019-05-06T10:22:38.079Z,101113.05
2019-05-06T10:25:45.541Z,101098.40
2019-05-06T10:29:12.804Z,101098.39
2019-05-06T10:32:29.283Z,101104.80
2019-05-06T10:35:54.856Z,101095.75
2019-05-06T10:39:06.022Z,101094.08
2019-05-06T10:42:17.303Z,101089.21
2019-05-06T10:45:34.347Z,101088.86
2019-05-06T10:48:42.413Z,101087.70
2019-05-06T10:51:57.760Z,101081.80
2019-05-06T10:55:23.149Z,101073.47
2019-05-06T10:58:32.676Z,101082.77
2019-05-06T11:01:42.628Z,101074.40
2019-05-06T11:04:50.120Z,101094.22
2019-05-06T11:07:57.585Z,101090.30
2019-05-06T11:11:14.735Z,101092.03
2019-05-06T11:14:23.335Z,101085.52
2019-05-06T11:17:40.014Z,101078.20
2019-05-06T11:20:56.714Z,101077.76
2019-05-06T11:24:13.410Z,101080.26
2019-05-06T11:27:39.566Z,101073.33
2019-05-06T11:31:25.739Z,101071.52
2019-05-06T11:34:48.034Z,101059.14
2019-05-06T11:38:14.501Z,101066.59
2019-05-06T11:41:23.427Z,101074.36
2019-05-06T11:44:32.335Z,101075.81
2019-05-06T11:47:38.208Z,101069.67
2019-05-06T11:50:59.414Z,101077.49
2019-05-06T11:54:20.726Z,101078.98
2019-05-06T11:57:27.383Z,101079.37
2019-05-06T12:00:39.451Z,101071.08
2019-05-06T12:03:46.924Z,101074.02
2019-05-06T12:07:11.065Z,101078.92
2019-05-06T12:10:13.743Z,101080.13
2019-05-06T12:13:22.971Z,101083.02
2019-05-06T12:16:30.065Z,101074.54
2019-05-06T12:19:46.851Z,101073.80
2019-05-06T12:23:04.554Z,101068.11
2019-05-06T12:26:13.225Z,101081.47
2019-05-06T12:29:20.641Z,101085.12
2019-05-06T12:32:33.847Z,101086.23
2019-05-06T12:35:44.453Z,101064.63
2019-05-06T12:39:14.783Z,101085.19
2019-05-06T12:42:45.093Z,101083.20
2019-05-06T12:45:53.166Z,101079.30
2019-05-06T12:49:17.849Z,101073.47
2019-05-06T12:52:34.609Z,101079.19
2019-05-06T12:55:43.049Z,101084.26
2019-05-06T12:58:52.391Z,101076.80
2019-05-06T13:01:59.171Z,101078.02
2019-05-06T13:05:06.981Z,101082.78
2019-05-06T13:08:20.036Z,101089.17
2019-05-06T13:11:23.389Z,101092.72
2019-05-06T13:14:29.238Z,101097.44
2019-05-06T13:17:36.681Z,101094.03
2019-05-06T13:20:49.786Z,101097.44
2019-05-06T13:23:55.963Z,101095.47
2019-05-06T13:27:02.554Z,101106.52
2019-05-06T13:30:12.931Z,101104.81
2019-05-06T13:33:44.087Z,101105.33
2019-05-06T13:37:08.141Z,101099.73
2019-05-06T13:40:27.148Z,101111.02
2019-05-06T13:43:47.473Z,101109.88
2019-05-06T13:46:55.590Z,101112.27
2019-05-06T13:50:03.094Z,101107.66
2019-05-06T13:53:14.024Z,101115.98
2019-05-06T13:56:19.628Z,101097.89
2019-05-06T13:59:30.180Z,101110.38
2019-05-06T14:02:53.152Z,101103.56
2019-05-06T14:06:12.221Z,101106.67
2019-05-06T14:09:33.344Z,101113.41
2019-05-06T14:12:35.691Z,101113.86
2019-05-06T14:15:42.198Z,101096.38
2019-05-06T14:18:49.622Z,101110.83
2019-05-06T14:21:56.991Z,101114.23
2019-05-06T14:25:35.903Z,101110.45
2019-05-06T14:28:49.962Z,101114.02
2019-05-06T14:32:14.999Z,101121.81
2019-05-06T14:35:23.117Z,101117.09
2019-05-06T14:38:32.245Z,101123.22
2019-05-06T14:41:53.497Z,101117.61
2019-05-06T14:45:14.541Z,101121.67
2019-05-06T14:48:28.812Z,101114.41
2019-05-06T14:51:45.520Z,101117.47
2019-05-06T14:55:09.151Z,101115.05
2019-05-06T14:58:16.535Z,101117.40
2019-05-06T15:01:24.021Z,101128.26
2019-05-06T15:04:32.428Z,101122.35
2019-05-06T15:07:42.126Z,101123.48
2019-05-06T15:10:49.652Z,101129.08
2019-05-06T15:14:07.258Z,101116.23
2019-05-06T15:17:14.400Z,101124.47
2019-05-06T15:20:34.122Z,101123.68
2019-05-06T15:23:49.337Z,101118.34
2019-05-06T15:26:55.541Z,101126.36
2019-05-06T15:30:05.665Z,101127.27
2019-05-06T15:33:13.676Z,101124.95
2019-05-06T15:36:26.340Z,101130.55
2019-05-06T15:39:48.934Z,101119.36
2019-05-06T15:43:05.618Z,101123.59
2019-05-06T15:46:22.867Z,101120.72
2019-05-06T15:49:31.940Z,101127.44
2019-05-06T15:52:39.279Z,101125.36
2019-05-06T15:55:47.082Z,101118.55
2019-05-06T15:59:04.069Z,101119.77
2019-05-06T16:02:20.518Z,101119.91
2019-05-06T16:05:28.018Z,101130.73
2019-05-06T16:08:44.565Z,101126.41
2019-05-06T16:12:02.942Z,101122.77
2019-05-06T16:15:12.837Z,101125.75
2019-05-06T16:18:19.700Z,101128.72
2019-05-06T16:21:26.995Z,101128.48
2019-05-06T16:24:43.157Z,101128.66
2019-05-06T16:28:12.791Z,101129.48
2019-05-06T16:31:28.567Z,101126.16
2019-05-06T16:34:45.299Z,101128.03
2019-05-06T16:37:52.682Z,101123.98
2019-05-06T16:41:13.069Z,101119.81
2019-05-06T16:44:30.225Z,101127.73
2019-05-06T16:47:37.024Z,101129.70
2019-05-06T16:50:45.943Z,101121.09
2019-05-06T16:53:52.597Z,101119.48
2019-05-06T16:57:07.375Z,101123.86
2019-05-06T17:00:17.489Z,101121.36
2019-05-06T17:03:46.052Z,101121.59
2019-05-06T17:06:53.598Z,101123.63
2019-05-06T17:10:11.872Z,101118.63
2019-05-06T17:13:28.633Z,101120.28
2019-05-06T17:16:45.296Z,101116.56
2019-05-06T17:20:03.129Z,101122.86
2019-05-06T17:23:13.004Z,101121.83
2019-05-06T17:26:29.196Z,101120.45
2019-05-06T17:30:04.909Z,101128.83
2019-05-06T17:33:29.943Z,101132.06
2019-05-06T17:36:54.864Z,101131.63
2019-05-06T17:40:08.055Z,101133.13
2019-05-06T17:43:13.034Z,101135.80
2019-05-06T17:46:22.386Z,101135.59
2019-05-06T17:49:30.030Z,101132.08
2019-05-06T17:52:37.603Z,101136.58
2019-05-06T17:55:45.187Z,101139.77
2019-05-06T17:59:03.182Z,101143.88
2019-05-06T18:02:14.925Z,101151.30
2019-05-06T18:05:22.829Z,101147.28
2019-05-06T18:08:45.331Z,101149.91
2019-05-06T18:12:12.767Z,101160.36
2019-05-06T18:15:29.433Z,101154.05
2019-05-06T18:18:46.217Z,101157.60
2019-05-06T18:22:05.322Z,101154.88
2019-05-06T18:25:23.043Z,101153.06
2019-05-06T18:28:32.685Z,101154.98
2019-05-06T18:31:39.706Z,101153.42
2019-05-06T18:34:56.550Z,101153.73
2019-05-06T18:38:13.092Z,101155.11
2019-05-06T18:41:23.407Z,101157.39
2019-05-06T18:44:32.750Z,101160.30
2019-05-06T18:47:39.384Z,101159.36
2019-05-06T18:50:46.688Z,101165.09
2019-05-06T18:54:03.816Z,101176.60
2019-05-06T18:57:12.935Z,101175.01
2019-05-06T19:00:18.960Z,101177.46
2019-05-06T19:03:28.830Z,101181.90
2019-05-06T19:06:36.229Z,101181.59
2019-05-06T19:09:52.445Z,101172.14
2019-05-06T19:13:22.197Z,101178.51
2019-05-06T19:16:49.811Z,101180.01
2019-05-06T19:19:57.682Z,101181.93
2019-05-06T19:23:03.918Z,101185.89
2019-05-06T19:26:12.374Z,101189.42
2019-05-06T19:29:19.623Z,101192.18
2019-05-06T19:32:26.408Z,101191.88
2019-05-06T19:35:43.550Z,101186.44
2019-05-06T19:38:49.822Z,101195.19
2019-05-06T19:41:57.476Z,101198.76
2019-05-06T19:45:17.369Z,101202.55
2019-05-06T19:48:33.920Z,101201.16
2019-05-06T19:51:42.825Z,101203.01
2019-05-06T19:54:52.029Z,101205.70
2019-05-06T19:57:59.391Z,101203.37
2019-05-06T20:01:06.292Z,101207.38
2019-05-06T20:04:13.762Z,101205.41
2019-05-06T20:07:28.716Z,101207.07
2019-05-06T20:11:02.200Z,101204.96
2019-05-06T20:14:09.946Z,101204.38
2019-05-06T20:17:28.455Z,101209.09
2019-05-06T20:20:37.041Z,101210.13
2019-05-06T20:23:44.434Z,101207.22
2019-05-06T20:27:02.376Z,101202.91
2019-05-06T20:30:09.951Z,101207.27
2019-05-06T20:33:17.201Z,101206.11
2019-05-06T20:36:24.520Z,101204.56
2019-05-06T20:39:32.312Z,101201.25
2019-05-06T20:42:39.035Z,101199.70
2019-05-06T20:45:55.889Z,101193.33
2019-05-06T20:49:13.227Z,101201.49
2019-05-06T20:52:20.364Z,101204.20
2019-05-06T20:55:27.912Z,101209.05
2019-05-06T20:58:35.232Z,101204.54
2019-05-06T21:01:42.642Z,101212.27
2019-05-06T21:04:49.951Z,101212.78
2019-05-06T21:08:06.854Z,101209.83
2019-05-06T21:11:29.129Z,101205.64
2019-05-06T21:14:44.293Z,101210.34
2019-05-06T21:18:04.030Z,101207.50
2019-05-06T21:21:20.402Z,101210.13
2019-05-06T21:24:37.030Z,101209.36
2019-05-06T21:27:59.763Z,101203.86
2019-05-06T21:31:16.517Z,101215.36
2019-05-06T21:34:33.301Z,101208.95
2019-05-06T21:37:49.906Z,101211.64
2019-05-06T21:41:06.664Z,101210.50
2019-05-06T21:44:23.453Z,101211.38
2019-05-06T21:47:46.569Z,101207.22
2019-05-06T21:50:53.961Z,101215.83
2019-05-06T21:54:02.872Z,101207.82
2019-05-06T21:57:12.221Z,101207.55
2019-05-06T22:00:23.377Z,101207.62
2019-05-06T22:03:32.728Z,101202.66
2019-05-06T22:06:38.725Z,101207.00
2019-05-06T22:09:45.015Z,101207.03
2019-05-06T22:12:52.758Z,101202.44
2019-05-06T22:16:04.354Z,101199.55
2019-05-06T22:19:09.381Z,101199.14
2019-05-06T22:22:27.880Z,101194.92
2019-05-06T22:25:49.475Z,101195.42
2019-05-06T22:29:06.123Z,101190.42
2019-05-06T22:32:23.289Z,101193.00
2019-05-06T22:35:47.549Z,101190.97
2019-05-06T22:39:05.536Z,101189.73
2019-05-06T22:42:12.894Z,101195.40
2019-05-06T22:45:22.185Z,101195.02
2019-05-06T22:48:28.795Z,101194.19
2019-05-06T22:51:36.164Z,101191.67
2019-05-06T22:54:52.998Z,101189.50
2019-05-06T22:58:11.793Z,101187.85
2019-05-06T23:01:35.518Z,101187.09
2019-05-06T23:04:43.920Z,101194.35
2019-05-06T23:07:53.257Z,101191.43
2019-05-06T23:11:00.586Z,101187.64
2019-05-06T23:14:28.833Z,101191.03
2019-05-06T23:17:35.900Z,101188.52
2019-05-06T23:20:52.829Z,101193.67
2019-05-06T23:24:13.133Z,101186.45
2019-05-06T23:27:18.909Z,101195.00
2019-05-06T23:30:26.412Z,101189.00
2019-05-06T23:33:33.733Z,101195.38
2019-05-06T23:37:27.191Z,101190.38
2019-05-06T23:41:12.440Z,101199.28
2019-05-06T23:45:06.426Z,101203.03
2019-05-06T23:48:52.223Z,101196.48
2019-05-06T23:52:34.984Z,101196.92
2019-05-06T23:56:27.937Z,101199.84
2019-05-06T23:59:35.352Z,101198.67
